sensor_id;sensor_type;location;lat;lon;timestamp;P1;P2;P0
33264;PMS5003;31404;53.974;-1.086;2022-11-15T00:00:38;34;30;
33264;PMS5003;31404;53.974;-1.086;2022-11-15T00:05:38;34;31;
33264;PMS5003;31404;53.974;-1.086;2022-11-15T00:10:38;38;31;
33264;PMS5003;31404;53.974;-1.086;2022-11-15T00:15:39;34;33;
33264;PMS5003;31404;53.974;-1.086;2022-11-15T00:20:38;35;32;
33264;PMS5003;31404;53.974;-1.086;2022-11-15T00:25:38;48;37;
33264;PMS5003;31404;53.974;-1.086;2022-11-15T00:30:38;43;29;
33264;PMS5003;31404;53.974;-1.086;2022-11-15T00:35:39;39;32;
33264;PMS5003;31404;53.974;-1.086;2022-11-15T00:40:38;36;34;
33264;PMS5003;31404;53.974;-1.086;2022-11-15T00:45:38;38;35;
33264;PMS5003;31404;53.974;-1.086;2022-11-15T00:50:38;43;36;
33264;PMS5003;31404;53.974;-1.086;2022-11-15T00:55:38;35;32;
33264;PMS5003;31404;53.974;-1.086;2022-11-15T01:00:38;34;29;
33264;PMS5003;31404;53.974;-1.086;2022-11-15T01:05:38;39;33;
33264;PMS5003;31404;53.974;-1.086;2022-11-15T01:10:38;36;33;
33264;PMS5003;31404;53.974;-1.086;2022-11-15T01:15:39;47;36;
33264;PMS5003;31404;53.974;-1.086;2022-11-15T01:20:39;43;34;
33264;PMS5003;31404;53.974;-1.086;2022-11-15T01:25:38;36;32;
33264;PMS5003;31404;53.974;-1.086;2022-11-15T01:30:38;47;35;
33264;PMS5003;31404;53.974;-1.086;2022-11-15T01:35:38;28;24;
33264;PMS5003;31404;53.974;-1.086;2022-11-15T01:40:37;39;28;
33264;PMS5003;31404;53.974;-1.086;2022-11-15T01:45:38;40;31;
33264;PMS5003;31404;53.974;-1.086;2022-11-15T01:50:38;33;31;
33264;PMS5003;31404;53.974;-1.086;2022-11-15T01:55:38;39;33;
33264;PMS5003;31404;53.974;-1.086;2022-11-15T02:00:38;43;35;
33264;PMS5003;31404;53.974;-1.086;2022-11-15T02:05:37;38;32;
33264;PMS5003;31404;53.974;-1.086;2022-11-15T02:10:38;37;35;
33264;PMS5003;31404;53.974;-1.086;2022-11-15T02:15:38;49;41;
33264;PMS5003;31404;53.974;-1.086;2022-11-15T02:20:41;37;31;
33264;PMS5003;31404;53.974;-1.086;2022-11-15T02:25:39;31;28;
33264;PMS5003;31404;53.974;-1.086;2022-11-15T02:30:39;37;28;
33264;PMS5003;31404;53.974;-1.086;2022-11-15T02:35:40;33;29;
33264;PMS5003;31404;53.974;-1.086;2022-11-15T02:40:39;30;27;
33264;PMS5003;31404;53.974;-1.086;2022-11-15T02:45:39;35;31;
33264;PMS5003;31404;53.974;-1.086;2022-11-15T02:50:38;34;31;
33264;PMS5003;31404;53.974;-1.086;2022-11-15T02:55:40;19;19;
33264;PMS5003;31404;53.974;-1.086;2022-11-15T03:00:39;23;21;
33264;PMS5003;31404;53.974;-1.086;2022-11-15T03:05:41;22;19;
33264;PMS5003;31404;53.974;-1.086;2022-11-15T03:10:41;13;13;
33264;PMS5003;31404;53.974;-1.086;2022-11-15T03:15:41;13;13;
33264;PMS5003;31404;53.974;-1.086;2022-11-15T03:20:38;11;11;
33264;PMS5003;31404;53.974;-1.086;2022-11-15T03:25:40;11;11;
33264;PMS5003;31404;53.974;-1.086;2022-11-15T03:30:38;11;11;
33264;PMS5003;31404;53.974;-1.086;2022-11-15T03:35:39;17;15;
33264;PMS5003;31404;53.974;-1.086;2022-11-15T03:40:39;15;13;
33264;PMS5003;31404;53.974;-1.086;2022-11-15T03:45:39;11;11;
33264;PMS5003;31404;53.974;-1.086;2022-11-15T03:50:38;49;45;
33264;PMS5003;31404;53.974;-1.086;2022-11-15T03:55:39;15;11;
33264;PMS5003;31404;53.974;-1.086;2022-11-15T04:00:38;16;13;
33264;PMS5003;31404;53.974;-1.086;2022-11-15T04:05:39;14;10;
33264;PMS5003;31404;53.974;-1.086;2022-11-15T04:10:38;11;9;
33264;PMS5003;31404;53.974;-1.086;2022-11-15T04:15:38;10;8;
33264;PMS5003;31404;53.974;-1.086;2022-11-15T04:20:38;12;12;
33264;PMS5003;31404;53.974;-1.086;2022-11-15T04:25:38;15;10;
33264;PMS5003;31404;53.974;-1.086;2022-11-15T04:30:38;12;11;
33264;PMS5003;31404;53.974;-1.086;2022-11-15T04:35:38;11;9;
33264;PMS5003;31404;53.974;-1.086;2022-11-15T04:40:38;17;14;
33264;PMS5003;31404;53.974;-1.086;2022-11-15T04:45:39;9;9;
33264;PMS5003;31404;53.974;-1.086;2022-11-15T04:50:38;10;8;
33264;PMS5003;31404;53.974;-1.086;2022-11-15T04:55:39;8;8;
33264;PMS5003;31404;53.974;-1.086;2022-11-15T05:00:38;7;5;
33264;PMS5003;31404;53.974;-1.086;2022-11-15T05:05:38;3;3;
33264;PMS5003;31404;53.974;-1.086;2022-11-15T05:10:38;8;5;
33264;PMS5003;31404;53.974;-1.086;2022-11-15T05:15:39;9;8;
33264;PMS5003;31404;53.974;-1.086;2022-11-15T05:20:38;5;3;
33264;PMS5003;31404;53.974;-1.086;2022-11-15T05:25:38;4;2;
33264;PMS5003;31404;53.974;-1.086;2022-11-15T05:30:39;9;8;
33264;PMS5003;31404;53.974;-1.086;2022-11-15T05:35:39;11;8;
33264;PMS5003;31404;53.974;-1.086;2022-11-15T05:40:38;6;6;
33264;PMS5003;31404;53.974;-1.086;2022-11-15T05:45:39;8;5;
33264;PMS5003;31404;53.974;-1.086;2022-11-15T05:50:38;4;4;
33264;PMS5003;31404;53.974;-1.086;2022-11-15T05:55:38;7;5;
33264;PMS5003;31404;53.974;-1.086;2022-11-15T06:00:38;7;4;
33264;PMS5003;31404;53.974;-1.086;2022-11-15T06:05:40;6;4;
33264;PMS5003;31404;53.974;-1.086;2022-11-15T06:10:38;5;5;
33264;PMS5003;31404;53.974;-1.086;2022-11-15T06:15:39;7;4;
33264;PMS5003;31404;53.974;-1.086;2022-11-15T06:20:39;8;7;
33264;PMS5003;31404;53.974;-1.086;2022-11-15T06:25:40;7;4;
33264;PMS5003;31404;53.974;-1.086;2022-11-15T06:30:39;5;5;
33264;PMS5003;31404;53.974;-1.086;2022-11-15T06:35:39;4;4;
33264;PMS5003;31404;53.974;-1.086;2022-11-15T06:40:38;3;3;
33264;PMS5003;31404;53.974;-1.086;2022-11-15T06:45:39;4;4;
33264;PMS5003;31404;53.974;-1.086;2022-11-15T06:50:38;5;5;
33264;PMS5003;31404;53.974;-1.086;2022-11-15T06:55:39;4;4;
33264;PMS5003;31404;53.974;-1.086;2022-11-15T07:00:38;6;5;
33264;PMS5003;31404;53.974;-1.086;2022-11-15T07:05:38;8;6;
33264;PMS5003;31404;53.974;-1.086;2022-11-15T07:10:39;5;4;
33264;PMS5003;31404;53.974;-1.086;2022-11-15T07:15:38;7;7;
33264;PMS5003;31404;53.974;-1.086;2022-11-15T07:20:38;4;3;
33264;PMS5003;31404;53.974;-1.086;2022-11-15T07:25:32;3;3;
33264;PMS5003;31404;53.974;-1.086;2022-11-15T07:30:38;5;4;
33264;PMS5003;31404;53.974;-1.086;2022-11-15T07:35:38;6;5;
33264;PMS5003;31404;53.974;-1.086;2022-11-15T07:40:39;4;4;
33264;PMS5003;31404;53.974;-1.086;2022-11-15T07:45:40;5;4;
33264;PMS5003;31404;53.974;-1.086;2022-11-15T07:50:40;5;5;
33264;PMS5003;31404;53.974;-1.086;2022-11-15T07:55:39;6;5;
33264;PMS5003;31404;53.974;-1.086;2022-11-15T08:00:38;7;7;
33264;PMS5003;31404;53.974;-1.086;2022-11-15T08:05:39;7;5;
33264;PMS5003;31404;53.974;-1.086;2022-11-15T08:10:38;3;3;
33264;PMS5003;31404;53.974;-1.086;2022-11-15T08:15:38;7;6;
33264;PMS5003;31404;53.974;-1.086;2022-11-15T08:20:38;4;4;
33264;PMS5003;31404;53.974;-1.086;2022-11-15T08:25:39;4;4;
33264;PMS5003;31404;53.974;-1.086;2022-11-15T08:30:39;6;6;
33264;PMS5003;31404;53.974;-1.086;2022-11-15T08:35:38;4;4;
33264;PMS5003;31404;53.974;-1.086;2022-11-15T08:40:38;4;4;
33264;PMS5003;31404;53.974;-1.086;2022-11-15T08:45:38;4;4;
33264;PMS5003;31404;53.974;-1.086;2022-11-15T08:50:39;7;4;
33264;PMS5003;31404;53.974;-1.086;2022-11-15T08:55:39;4;4;
33264;PMS5003;31404;53.974;-1.086;2022-11-15T09:00:38;4;4;
33264;PMS5003;31404;53.974;-1.086;2022-11-15T09:05:38;6;6;
33264;PMS5003;31404;53.974;-1.086;2022-11-15T09:10:39;4;4;
33264;PMS5003;31404;53.974;-1.086;2022-11-15T09:15:38;3;3;
33264;PMS5003;31404;53.974;-1.086;2022-11-15T09:20:38;4;4;
33264;PMS5003;31404;53.974;-1.086;2022-11-15T09:25:39;5;4;
33264;PMS5003;31404;53.974;-1.086;2022-11-15T09:30:38;4;4;
33264;PMS5003;31404;53.974;-1.086;2022-11-15T09:35:38;4;4;
33264;PMS5003;31404;53.974;-1.086;2022-11-15T09:40:38;5;3;
33264;PMS5003;31404;53.974;-1.086;2022-11-15T09:45:40;4;3;
33264;PMS5003;31404;53.974;-1.086;2022-11-15T09:50:40;4;4;
33264;PMS5003;31404;53.974;-1.086;2022-11-15T09:55:40;4;4;
33264;PMS5003;31404;53.974;-1.086;2022-11-15T10:00:38;4;4;
33264;PMS5003;31404;53.974;-1.086;2022-11-15T10:05:39;5;5;
33264;PMS5003;31404;53.974;-1.086;2022-11-15T10:10:39;5;3;
33264;PMS5003;31404;53.974;-1.086;2022-11-15T10:15:40;4;4;
33264;PMS5003;31404;53.974;-1.086;2022-11-15T10:20:41;3;3;
33264;PMS5003;31404;53.974;-1.086;2022-11-15T10:25:40;4;2;
33264;PMS5003;31404;53.974;-1.086;2022-11-15T10:30:38;4;2;
33264;PMS5003;31404;53.974;-1.086;2022-11-15T10:35:39;5;5;
33264;PMS5003;31404;53.974;-1.086;2022-11-15T10:40:38;5;4;
33264;PMS5003;31404;53.974;-1.086;2022-11-15T10:45:38;3;3;
33264;PMS5003;31404;53.974;-1.086;2022-11-15T10:50:38;3;3;
33264;PMS5003;31404;53.974;-1.086;2022-11-15T10:55:38;3;3;
33264;PMS5003;31404;53.974;-1.086;2022-11-15T11:00:38;3;3;
33264;PMS5003;31404;53.974;-1.086;2022-11-15T11:05:38;4;3;
33264;PMS5003;31404;53.974;-1.086;2022-11-15T11:10:38;3;3;
33264;PMS5003;31404;53.974;-1.086;2022-11-15T11:15:38;3;3;
33264;PMS5003;31404;53.974;-1.086;2022-11-15T11:20:40;5;3;
33264;PMS5003;31404;53.974;-1.086;2022-11-15T11:25:39;4;4;
33264;PMS5003;31404;53.974;-1.086;2022-11-15T11:30:41;6;5;
33264;PMS5003;31404;53.974;-1.086;2022-11-15T11:35:41;5;3;
33264;PMS5003;31404;53.974;-1.086;2022-11-15T11:40:39;5;5;
33264;PMS5003;31404;53.974;-1.086;2022-11-15T11:55:39;4;4;
33264;PMS5003;31404;53.974;-1.086;2022-11-15T12:00:39;3;3;
33264;PMS5003;31404;53.974;-1.086;2022-11-15T12:05:40;4;4;
33264;PMS5003;31404;53.974;-1.086;2022-11-15T12:10:38;7;4;
33264;PMS5003;31404;53.974;-1.086;2022-11-15T12:15:43;3;3;
33264;PMS5003;31404;53.974;-1.086;2022-11-15T12:20:39;5;5;
33264;PMS5003;31404;53.974;-1.086;2022-11-15T12:25:41;6;4;
33264;PMS5003;31404;53.974;-1.086;2022-11-15T12:30:42;3;3;
33264;PMS5003;31404;53.974;-1.086;2022-11-15T12:35:39;4;4;
33264;PMS5003;31404;53.974;-1.086;2022-11-15T12:40:39;3;3;
33264;PMS5003;31404;53.974;-1.086;2022-11-15T12:45:39;4;4;
33264;PMS5003;31404;53.974;-1.086;2022-11-15T12:55:38;3;3;
33264;PMS5003;31404;53.974;-1.086;2022-11-15T13:00:38;3;3;
33264;PMS5003;31404;53.974;-1.086;2022-11-15T13:10:39;3;3;
33264;PMS5003;31404;53.974;-1.086;2022-11-15T13:20:38;4;4;
33264;PMS5003;31404;53.974;-1.086;2022-11-15T13:30:38;3;3;
33264;PMS5003;31404;53.974;-1.086;2022-11-15T13:35:40;5;4;
33264;PMS5003;31404;53.974;-1.086;2022-11-15T13:40:38;6;6;
33264;PMS5003;31404;53.974;-1.086;2022-11-15T13:45:38;4;4;
33264;PMS5003;31404;53.974;-1.086;2022-11-15T13:50:38;7;4;
33264;PMS5003;31404;53.974;-1.086;2022-11-15T13:55:38;5;3;
33264;PMS5003;31404;53.974;-1.086;2022-11-15T14:00:39;4;4;
33264;PMS5003;31404;53.974;-1.086;2022-11-15T14:05:38;2;2;
33264;PMS5003;31404;53.974;-1.086;2022-11-15T14:10:38;2;2;
33264;PMS5003;31404;53.974;-1.086;2022-11-15T14:15:38;5;5;
33264;PMS5003;31404;53.974;-1.086;2022-11-15T14:20:38;3;3;
33264;PMS5003;31404;53.974;-1.086;2022-11-15T14:25:38;4;4;
33264;PMS5003;31404;53.974;-1.086;2022-11-15T14:30:38;4;4;
33264;PMS5003;31404;53.974;-1.086;2022-11-15T14:35:38;4;4;
33264;PMS5003;31404;53.974;-1.086;2022-11-15T14:40:38;4;4;
33264;PMS5003;31404;53.974;-1.086;2022-11-15T14:45:38;5;5;
33264;PMS5003;31404;53.974;-1.086;2022-11-15T14:50:38;4;4;
33264;PMS5003;31404;53.974;-1.086;2022-11-15T14:55:39;3;3;
33264;PMS5003;31404;53.974;-1.086;2022-11-15T15:00:38;4;4;
33264;PMS5003;31404;53.974;-1.086;2022-11-15T15:05:39;4;4;
33264;PMS5003;31404;53.974;-1.086;2022-11-15T15:10:39;4;4;
33264;PMS5003;31404;53.974;-1.086;2022-11-15T15:15:38;3;3;
33264;PMS5003;31404;53.974;-1.086;2022-11-15T15:20:39;4;4;
33264;PMS5003;31404;53.974;-1.086;2022-11-15T15:25:38;6;6;
33264;PMS5003;31404;53.974;-1.086;2022-11-15T15:30:38;4;4;
33264;PMS5003;31404;53.974;-1.086;2022-11-15T15:35:38;4;4;
33264;PMS5003;31404;53.974;-1.086;2022-11-15T15:40:38;4;4;
33264;PMS5003;31404;53.974;-1.086;2022-11-15T15:45:39;4;4;
33264;PMS5003;31404;53.974;-1.086;2022-11-15T15:50:39;5;5;
33264;PMS5003;31404;53.974;-1.086;2022-11-15T15:55:38;6;6;
33264;PMS5003;31404;53.974;-1.086;2022-11-15T16:00:37;8;6;
33264;PMS5003;31404;53.974;-1.086;2022-11-15T16:05:38;8;8;
33264;PMS5003;31404;53.974;-1.086;2022-11-15T16:10:39;9;8;
33264;PMS5003;31404;53.974;-1.086;2022-11-15T16:15:38;11;9;
33264;PMS5003;31404;53.974;-1.086;2022-11-15T16:20:38;6;6;
33264;PMS5003;31404;53.974;-1.086;2022-11-15T16:25:40;10;9;
33264;PMS5003;31404;53.974;-1.086;2022-11-15T16:30:38;9;9;
33264;PMS5003;31404;53.974;-1.086;2022-11-15T16:35:38;10;10;
33264;PMS5003;31404;53.974;-1.086;2022-11-15T16:40:38;8;8;
33264;PMS5003;31404;53.974;-1.086;2022-11-15T16:45:38;9;9;
33264;PMS5003;31404;53.974;-1.086;2022-11-15T16:50:38;9;9;
33264;PMS5003;31404;53.974;-1.086;2022-11-15T16:55:38;7;7;
33264;PMS5003;31404;53.974;-1.086;2022-11-15T17:00:38;6;6;
33264;PMS5003;31404;53.974;-1.086;2022-11-15T17:05:38;1;1;
33264;PMS5003;31404;53.974;-1.086;2022-11-15T17:10:39;0;0;
33264;PMS5003;31404;53.974;-1.086;2022-11-15T17:15:38;2;2;
33264;PMS5003;31404;53.974;-1.086;2022-11-15T17:20:39;1;1;
33264;PMS5003;31404;53.974;-1.086;2022-11-15T17:25:38;2;2;
33264;PMS5003;31404;53.974;-1.086;2022-11-15T17:30:40;4;4;
33264;PMS5003;31404;53.974;-1.086;2022-11-15T17:35:39;5;5;
33264;PMS5003;31404;53.974;-1.086;2022-11-15T17:40:38;6;6;
33264;PMS5003;31404;53.974;-1.086;2022-11-15T17:45:39;3;3;
33264;PMS5003;31404;53.974;-1.086;2022-11-15T17:50:38;8;6;
33264;PMS5003;31404;53.974;-1.086;2022-11-15T17:55:38;1;1;
33264;PMS5003;31404;53.974;-1.086;2022-11-15T18:00:38;3;3;
33264;PMS5003;31404;53.974;-1.086;2022-11-15T18:05:38;2;1;
33264;PMS5003;31404;53.974;-1.086;2022-11-15T18:10:39;3;3;
33264;PMS5003;31404;53.974;-1.086;2022-11-15T18:15:38;7;7;
33264;PMS5003;31404;53.974;-1.086;2022-11-15T18:20:39;8;8;
33264;PMS5003;31404;53.974;-1.086;2022-11-15T18:25:38;9;6;
33264;PMS5003;31404;53.974;-1.086;2022-11-15T18:30:38;3;3;
33264;PMS5003;31404;53.974;-1.086;2022-11-15T18:35:38;3;3;
33264;PMS5003;31404;53.974;-1.086;2022-11-15T18:40:39;5;5;
33264;PMS5003;31404;53.974;-1.086;2022-11-15T18:45:38;7;6;
33264;PMS5003;31404;53.974;-1.086;2022-11-15T18:50:39;9;7;
33264;PMS5003;31404;53.974;-1.086;2022-11-15T18:55:38;7;4;
33264;PMS5003;31404;53.974;-1.086;2022-11-15T19:00:38;5;4;
33264;PMS5003;31404;53.974;-1.086;2022-11-15T19:05:38;5;5;
33264;PMS5003;31404;53.974;-1.086;2022-11-15T19:10:39;11;10;
33264;PMS5003;31404;53.974;-1.086;2022-11-15T19:15:38;12;8;
33264;PMS5003;31404;53.974;-1.086;2022-11-15T19:20:38;20;16;
33264;PMS5003;31404;53.974;-1.086;2022-11-15T19:25:39;21;15;
33264;PMS5003;31404;53.974;-1.086;2022-11-15T19:30:38;18;14;
33264;PMS5003;31404;53.974;-1.086;2022-11-15T19:35:38;15;14;
33264;PMS5003;31404;53.974;-1.086;2022-11-15T19:40:39;12;12;
33264;PMS5003;31404;53.974;-1.086;2022-11-15T19:45:38;17;16;
33264;PMS5003;31404;53.974;-1.086;2022-11-15T19:50:38;12;12;
33264;PMS5003;31404;53.974;-1.086;2022-11-15T19:55:39;15;14;
33264;PMS5003;31404;53.974;-1.086;2022-11-15T20:00:38;17;15;
33264;PMS5003;31404;53.974;-1.086;2022-11-15T20:05:38;14;14;
33264;PMS5003;31404;53.974;-1.086;2022-11-15T20:10:38;15;13;
33264;PMS5003;31404;53.974;-1.086;2022-11-15T20:15:38;23;17;
33264;PMS5003;31404;53.974;-1.086;2022-11-15T20:20:38;20;17;
33264;PMS5003;31404;53.974;-1.086;2022-11-15T20:25:38;16;15;
33264;PMS5003;31404;53.974;-1.086;2022-11-15T20:30:38;17;17;
33264;PMS5003;31404;53.974;-1.086;2022-11-15T20:35:38;17;15;
33264;PMS5003;31404;53.974;-1.086;2022-11-15T20:40:38;17;17;
33264;PMS5003;31404;53.974;-1.086;2022-11-15T20:45:39;23;18;
33264;PMS5003;31404;53.974;-1.086;2022-11-15T20:50:38;14;14;
33264;PMS5003;31404;53.974;-1.086;2022-11-15T20:55:38;14;13;
33264;PMS5003;31404;53.974;-1.086;2022-11-15T21:00:42;12;12;
33264;PMS5003;31404;53.974;-1.086;2022-11-15T21:05:39;25;21;
33264;PMS5003;31404;53.974;-1.086;2022-11-15T21:10:38;20;19;
33264;PMS5003;31404;53.974;-1.086;2022-11-15T21:15:38;25;22;
33264;PMS5003;31404;53.974;-1.086;2022-11-15T21:20:37;18;15;
33264;PMS5003;31404;53.974;-1.086;2022-11-15T21:25:38;19;19;
33264;PMS5003;31404;53.974;-1.086;2022-11-15T21:30:38;18;17;
33264;PMS5003;31404;53.974;-1.086;2022-11-15T21:35:38;21;19;
33264;PMS5003;31404;53.974;-1.086;2022-11-15T21:40:37;20;17;
33264;PMS5003;31404;53.974;-1.086;2022-11-15T21:45:39;18;18;
33264;PMS5003;31404;53.974;-1.086;2022-11-15T21:50:38;22;19;
33264;PMS5003;31404;53.974;-1.086;2022-11-15T21:55:38;19;19;
33264;PMS5003;31404;53.974;-1.086;2022-11-15T22:00:39;18;18;
33264;PMS5003;31404;53.974;-1.086;2022-11-15T22:05:38;23;21;
33264;PMS5003;31404;53.974;-1.086;2022-11-15T22:10:39;19;18;
33264;PMS5003;31404;53.974;-1.086;2022-11-15T22:15:38;23;18;
33264;PMS5003;31404;53.974;-1.086;2022-11-15T22:20:38;22;19;
33264;PMS5003;31404;53.974;-1.086;2022-11-15T22:25:38;19;18;
33264;PMS5003;31404;53.974;-1.086;2022-11-15T22:30:38;21;21;
33264;PMS5003;31404;53.974;-1.086;2022-11-15T22:35:39;21;21;
33264;PMS5003;31404;53.974;-1.086;2022-11-15T22:40:37;33;29;
33264;PMS5003;31404;53.974;-1.086;2022-11-15T22:50:38;24;24;
33264;PMS5003;31404;53.974;-1.086;2022-11-15T22:55:38;22;21;
33264;PMS5003;31404;53.974;-1.086;2022-11-15T23:00:38;24;24;
33264;PMS5003;31404;53.974;-1.086;2022-11-15T23:05:38;21;21;
33264;PMS5003;31404;53.974;-1.086;2022-11-15T23:10:38;20;20;
33264;PMS5003;31404;53.974;-1.086;2022-11-15T23:15:38;22;16;
33264;PMS5003;31404;53.974;-1.086;2022-11-15T23:20:38;21;19;
33264;PMS5003;31404;53.974;-1.086;2022-11-15T23:25:39;22;20;
33264;PMS5003;31404;53.974;-1.086;2022-11-15T23:30:38;23;19;
33264;PMS5003;31404;53.974;-1.086;2022-11-15T23:35:38;23;16;
33264;PMS5003;31404;53.974;-1.086;2022-11-15T23:40:38;17;17;
33264;PMS5003;31404;53.974;-1.086;2022-11-15T23:45:38;12;12;
33264;PMS5003;31404;53.974;-1.086;2022-11-15T23:50:38;17;12;
33264;PMS5003;31404;53.974;-1.086;2022-11-15T23:55:38;18;16;
